createdAt,value
2019-06-10T00:02:07.131Z,16.90
2019-06-10T00:04:34.983Z,16.80
2019-06-10T00:07:03.868Z,16.70
2019-06-10T00:09:32.197Z,16.70
2019-06-10T00:12:02.793Z,16.60
2019-06-10T00:14:31.489Z,16.60
2019-06-10T00:17:01.245Z,16.60
2019-06-10T00:19:28.356Z,16.60
2019-06-10T00:21:57.300Z,16.60
2019-06-10T00:24:24.874Z,16.60
2019-06-10T00:26:52.451Z,16.60
2019-06-10T00:29:22.284Z,16.60
2019-06-10T00:31:50.812Z,16.60
2019-06-10T00:34:20.649Z,16.60
2019-06-10T00:36:50.688Z,16.60
2019-06-10T00:39:17.549Z,16.60
2019-06-10T00:41:45.048Z,16.60
2019-06-10T00:44:12.870Z,16.50
2019-06-10T00:46:40.862Z,16.50
2019-06-10T00:49:12.587Z,16.50
2019-06-10T00:51:37.915Z,16.50
2019-06-10T00:54:07.032Z,16.40
2019-06-10T00:56:35.002Z,16.30
2019-06-10T00:59:04.130Z,16.20
2019-06-10T01:01:33.022Z,16.30
2019-06-10T01:04:02.955Z,16.30
2019-06-10T01:06:31.819Z,16.30
2019-06-10T01:09:00.622Z,16.30
2019-06-10T01:11:30.851Z,16.30
2019-06-10T01:13:57.996Z,16.30
2019-06-10T01:16:25.494Z,16.30
2019-06-10T01:18:53.634Z,16.30
2019-06-10T01:21:21.951Z,16.20
2019-06-10T01:23:51.045Z,16.10
2019-06-10T01:26:21.525Z,16.10
2019-06-10T01:28:51.455Z,16.00
2019-06-10T01:31:21.618Z,16.00
2019-06-10T01:33:48.325Z,16.00
2019-06-10T01:36:16.614Z,16.00
2019-06-10T01:38:44.334Z,15.90
2019-06-10T01:41:13.876Z,15.90
2019-06-10T01:43:41.915Z,15.90
2019-06-10T01:46:12.608Z,15.80
2019-06-10T01:48:45.079Z,15.80
2019-06-10T01:51:11.903Z,15.80
2019-06-10T01:53:41.495Z,15.80
2019-06-10T01:56:10.360Z,15.80
2019-06-10T01:58:40.597Z,15.90
2019-06-10T02:01:27.594Z,15.90
2019-06-10T02:03:55.175Z,15.90
2019-06-10T02:06:25.566Z,15.90
2019-06-10T02:08:54.359Z,15.80
2019-06-10T02:11:23.565Z,15.80
2019-06-10T02:13:52.289Z,15.80
2019-06-10T02:16:23.745Z,15.80
2019-06-10T02:19:00.219Z,15.70
2019-06-10T02:21:22.597Z,15.70
2019-06-10T02:23:48.100Z,15.70
2019-06-10T02:26:16.826Z,15.70
2019-06-10T02:28:45.174Z,15.70
2019-06-10T02:31:15.209Z,15.70
2019-06-10T02:33:42.212Z,15.70
2019-06-10T02:36:09.780Z,15.70
2019-06-10T02:38:39.527Z,15.70
2019-06-10T02:41:06.660Z,15.70
2019-06-10T02:43:37.415Z,15.80
2019-06-10T02:46:05.066Z,15.80
2019-06-10T02:48:35.170Z,15.80
2019-06-10T02:51:05.220Z,15.80
2019-06-10T02:53:36.085Z,15.80
2019-06-10T02:56:04.174Z,15.80
2019-06-10T02:58:38.501Z,15.80
2019-06-10T03:01:04.171Z,15.80
2019-06-10T03:03:39.354Z,15.80
2019-06-10T03:06:00.207Z,15.80
2019-06-10T03:08:31.460Z,15.80
2019-06-10T03:10:57.195Z,15.80
2019-06-10T03:13:25.673Z,15.80
2019-06-10T03:16:13.122Z,15.70
2019-06-10T03:18:43.013Z,15.70
2019-06-10T03:21:12.259Z,15.70
2019-06-10T03:23:39.613Z,15.70
2019-06-10T03:26:07.070Z,15.60
2019-06-10T03:28:34.612Z,15.50
2019-06-10T03:31:05.920Z,15.50
2019-06-10T03:33:40.483Z,15.40
2019-06-10T03:36:02.986Z,15.40
2019-06-10T03:38:32.263Z,15.40
2019-06-10T03:40:59.633Z,15.30
2019-06-10T03:43:27.903Z,15.40
2019-06-10T03:45:55.578Z,15.40
2019-06-10T03:48:24.113Z,15.40
2019-06-10T03:50:52.527Z,15.40
2019-06-10T03:53:21.282Z,15.40
2019-06-10T03:55:49.580Z,15.50
2019-06-10T03:58:17.561Z,15.50
2019-06-10T04:00:45.112Z,15.50
2019-06-10T04:03:12.637Z,15.50
2019-06-10T04:05:42.145Z,15.50
2019-06-10T04:08:09.526Z,15.60
2019-06-10T04:10:37.088Z,15.60
2019-06-10T04:13:04.609Z,15.50
2019-06-10T04:15:32.630Z,15.50
2019-06-10T04:18:00.363Z,15.50
2019-06-10T04:20:29.448Z,15.50
2019-06-10T04:22:57.315Z,15.60
2019-06-10T04:25:27.853Z,15.60
2019-06-10T04:27:54.211Z,15.60
2019-06-10T04:30:24.357Z,15.60
2019-06-10T04:32:52.889Z,15.50
2019-06-10T04:35:23.056Z,15.50
2019-06-10T04:37:52.007Z,15.40
2019-06-10T04:40:21.095Z,15.40
2019-06-10T04:42:49.278Z,15.40
2019-06-10T04:45:18.695Z,15.40
2019-06-10T04:47:46.260Z,15.50
2019-06-10T04:50:24.594Z,15.50
2019-06-10T04:52:43.386Z,15.60
2019-06-10T04:55:12.609Z,15.60
2019-06-10T04:57:40.262Z,15.70
2019-06-10T05:00:13.912Z,15.80
2019-06-10T05:02:38.190Z,15.80
2019-06-10T05:05:05.935Z,15.90
2019-06-10T05:07:36.835Z,15.90
2019-06-10T05:10:04.328Z,15.90
2019-06-10T05:12:32.726Z,15.90
2019-06-10T05:15:03.272Z,16.00
2019-06-10T05:17:31.780Z,16.00
2019-06-10T05:19:59.465Z,16.10
2019-06-10T05:22:28.493Z,16.10
2019-06-10T05:24:56.242Z,16.20
2019-06-10T05:27:25.714Z,16.20
2019-06-10T05:29:54.424Z,16.40
2019-06-10T05:32:23.200Z,16.50
2019-06-10T05:34:52.806Z,16.60
2019-06-10T05:37:23.026Z,16.70
2019-06-10T05:39:50.033Z,16.80
2019-06-10T05:42:17.755Z,16.80
2019-06-10T05:44:45.329Z,16.90
2019-06-10T05:47:12.822Z,17.00
2019-06-10T05:49:42.906Z,17.10
2019-06-10T05:52:09.854Z,17.20
2019-06-10T05:54:37.334Z,17.30
2019-06-10T05:57:05.065Z,17.50
2019-06-10T05:59:34.544Z,17.60
2019-06-10T06:02:02.365Z,17.70
2019-06-10T06:04:32.582Z,17.90
2019-06-10T06:06:59.632Z,18.00
2019-06-10T06:09:27.217Z,18.00
2019-06-10T06:11:54.810Z,18.10
2019-06-10T06:14:22.724Z,18.20
2019-06-10T06:16:53.195Z,18.20
2019-06-10T06:19:22.994Z,18.30
2019-06-10T06:21:50.162Z,18.40
2019-06-10T06:24:17.889Z,18.40
2019-06-10T06:26:45.475Z,18.50
2019-06-10T06:29:13.211Z,18.50
2019-06-10T06:31:42.990Z,18.60
2019-06-10T06:34:10.258Z,18.60
2019-06-10T06:36:38.344Z,18.70
2019-06-10T06:39:07.525Z,18.70
2019-06-10T06:41:37.160Z,18.70
2019-06-10T06:44:04.512Z,18.70
2019-06-10T06:46:34.508Z,18.60
2019-06-10T06:49:02.088Z,18.50
2019-06-10T06:51:40.056Z,18.40
2019-06-10T06:53:59.506Z,18.50
2019-06-10T06:56:27.106Z,18.60
2019-06-10T06:58:54.688Z,18.60
2019-06-10T07:01:25.634Z,18.70
2019-06-10T07:03:53.630Z,18.80
2019-06-10T07:06:23.007Z,18.90
2019-06-10T07:09:01.534Z,19.10
2019-06-10T07:11:22.384Z,19.10
2019-06-10T07:13:53.489Z,19.10
2019-06-10T07:16:22.980Z,19.20
2019-06-10T07:18:53.635Z,19.30
2019-06-10T07:21:22.575Z,19.40
2019-06-10T07:23:49.508Z,19.40
2019-06-10T07:26:17.093Z,19.50
2019-06-10T07:28:47.538Z,19.70
2019-06-10T07:31:23.019Z,19.80
2019-06-10T07:33:46.931Z,19.90
2019-06-10T07:36:13.816Z,20.00
2019-06-10T07:38:45.869Z,20.00
2019-06-10T07:41:12.614Z,20.10
2019-06-10T07:43:44.236Z,20.20
2019-06-10T07:46:12.956Z,20.20
2019-06-10T07:48:41.060Z,20.20
2019-06-10T07:51:08.915Z,20.20
2019-06-10T07:53:36.948Z,20.20
2019-06-10T07:56:05.780Z,20.10
2019-06-10T07:58:36.460Z,20.10
2019-06-10T08:01:04.291Z,20.30
2019-06-10T08:03:34.373Z,20.40
2019-06-10T08:06:03.282Z,20.60
2019-06-10T08:08:32.923Z,20.70
2019-06-10T08:11:03.063Z,20.80
2019-06-10T08:13:32.086Z,20.80
2019-06-10T08:15:59.242Z,21.00
2019-06-10T08:18:26.821Z,21.10
2019-06-10T08:20:54.431Z,21.30
2019-06-10T08:23:23.580Z,21.60
2019-06-10T08:25:56.454Z,21.70
2019-06-10T08:28:22.889Z,21.70
2019-06-10T08:30:53.213Z,21.80
2019-06-10T08:33:22.668Z,21.80
2019-06-10T08:35:59.111Z,21.70
2019-06-10T08:38:19.568Z,21.70
2019-06-10T08:40:48.545Z,21.70
2019-06-10T08:43:16.472Z,21.60
2019-06-10T08:45:45.814Z,21.60
2019-06-10T08:48:14.355Z,21.60
2019-06-10T08:50:49.952Z,21.50
2019-06-10T08:53:22.709Z,21.50
2019-06-10T08:55:53.610Z,21.50
2019-06-10T08:58:22.575Z,21.50
2019-06-10T09:00:54.185Z,21.50
2019-06-10T09:03:23.359Z,21.40
2019-06-10T09:05:53.880Z,21.50
2019-06-10T09:08:23.510Z,21.60
2019-06-10T09:10:54.251Z,21.60
2019-06-10T09:13:22.370Z,21.70
2019-06-10T09:16:10.490Z,21.80
2019-06-10T09:18:23.238Z,21.90
2019-06-10T09:20:55.303Z,21.90
2019-06-10T09:23:23.136Z,22.00
2019-06-10T09:25:54.510Z,22.10
2019-06-10T09:28:19.647Z,22.30
2019-06-10T09:30:52.846Z,22.60
2019-06-10T09:33:16.746Z,22.90
2019-06-10T09:35:48.795Z,23.30
2019-06-10T09:38:14.172Z,23.70
2019-06-10T09:41:00.738Z,24.00
2019-06-10T09:43:23.305Z,24.30
2019-06-10T09:45:55.414Z,24.70
2019-06-10T09:48:23.105Z,25.00
2019-06-10T09:50:57.957Z,25.10
2019-06-10T09:53:33.508Z,25.20
2019-06-10T09:55:53.090Z,25.30
2019-06-10T09:58:22.964Z,25.60
2019-06-10T10:00:55.254Z,25.80
2019-06-10T10:03:23.181Z,25.80
2019-06-10T10:05:59.371Z,25.90
2019-06-10T10:08:19.159Z,25.80
2019-06-10T10:10:50.153Z,25.60
2019-06-10T10:13:16.098Z,25.00
2019-06-10T10:15:44.042Z,25.10
2019-06-10T10:18:13.348Z,24.90
2019-06-10T10:20:44.830Z,24.90
2019-06-10T10:23:13.692Z,25.00
2019-06-10T10:25:43.330Z,25.20
2019-06-10T10:28:09.933Z,25.50
2019-06-10T10:30:37.944Z,26.00
2019-06-10T10:33:05.960Z,26.40
2019-06-10T10:35:33.719Z,26.70
2019-06-10T10:38:03.905Z,26.70
2019-06-10T10:40:32.560Z,26.90
2019-06-10T10:43:19.972Z,27.10
2019-06-10T10:45:30.151Z,27.20
2019-06-10T10:47:58.120Z,27.40
2019-06-10T10:50:25.783Z,27.60
2019-06-10T10:52:53.934Z,27.40
2019-06-10T10:55:22.314Z,27.40
2019-06-10T10:57:52.845Z,27.50
2019-06-10T11:00:22.634Z,27.90
2019-06-10T11:02:51.470Z,28.20
2019-06-10T11:05:34.086Z,28.20
2019-06-10T11:08:04.367Z,28.30
2019-06-10T11:10:33.581Z,28.60
2019-06-10T11:13:04.158Z,28.80
2019-06-10T11:15:33.755Z,29.00
2019-06-10T11:18:03.849Z,29.30
2019-06-10T11:20:33.670Z,29.30
2019-06-10T11:23:02.974Z,29.10
2019-06-10T11:25:33.053Z,28.90
2019-06-10T11:28:00.068Z,28.70
2019-06-10T11:30:27.627Z,28.60
2019-06-10T11:32:57.253Z,28.50
2019-06-10T11:35:25.065Z,28.30
2019-06-10T11:37:54.017Z,28.10
2019-06-10T11:40:22.666Z,27.90
2019-06-10T11:42:54.195Z,27.70
2019-06-10T11:45:22.292Z,27.60
2019-06-10T11:47:51.618Z,27.40
2019-06-10T11:50:23.218Z,27.20
2019-06-10T11:52:55.442Z,27.20
2019-06-10T11:55:21.362Z,27.10
2019-06-10T11:57:49.889Z,27.00
2019-06-10T12:00:19.533Z,26.70
2019-06-10T12:02:48.018Z,26.50
2019-06-10T12:05:20.352Z,26.20
2019-06-10T12:07:48.787Z,26.10
2019-06-10T12:10:16.864Z,25.70
2019-06-10T12:12:44.603Z,25.50
2019-06-10T12:15:12.856Z,25.30
2019-06-10T12:17:50.386Z,25.10
2019-06-10T12:20:13.338Z,24.90
2019-06-10T12:22:42.405Z,24.60
2019-06-10T12:25:31.666Z,24.40
2019-06-10T12:27:43.321Z,24.20
2019-06-10T12:30:13.315Z,24.00
2019-06-10T12:32:42.542Z,23.70
2019-06-10T12:35:13.668Z,23.60
2019-06-10T12:37:42.733Z,23.50
2019-06-10T12:40:12.778Z,23.30
2019-06-10T12:42:41.551Z,23.20
2019-06-10T12:45:12.598Z,23.00
2019-06-10T12:47:42.505Z,22.80
2019-06-10T12:50:12.855Z,22.70
2019-06-10T12:52:41.047Z,22.70
2019-06-10T12:55:09.170Z,22.70
2019-06-10T12:57:37.285Z,22.70
2019-06-10T13:00:19.658Z,22.60
2019-06-10T13:02:37.682Z,22.60
2019-06-10T13:05:06.977Z,22.40
2019-06-10T13:07:37.477Z,22.20
2019-06-10T13:10:05.312Z,22.10
2019-06-10T13:12:33.350Z,22.00
2019-06-10T13:15:04.757Z,22.00
2019-06-10T13:17:31.043Z,22.10
2019-06-10T13:19:59.244Z,22.10
2019-06-10T13:22:27.258Z,22.20
2019-06-10T13:24:54.875Z,22.20
2019-06-10T13:27:22.851Z,22.20
2019-06-10T13:29:50.465Z,22.20
2019-06-10T13:32:17.943Z,22.10
2019-06-10T13:34:45.825Z,22.00
2019-06-10T13:37:16.102Z,21.90
2019-06-10T13:39:43.351Z,21.90
2019-06-10T13:42:13.633Z,21.90
2019-06-10T13:44:42.835Z,22.00
2019-06-10T13:47:14.792Z,22.10
2019-06-10T13:49:42.831Z,22.00
2019-06-10T13:52:15.974Z,22.10
2019-06-10T13:54:42.022Z,22.00
2019-06-10T13:57:11.652Z,21.90
2019-06-10T13:59:39.059Z,21.80
2019-06-10T14:02:10.016Z,21.70
2019-06-10T14:04:36.095Z,21.60
2019-06-10T14:07:08.261Z,21.50
2019-06-10T14:09:33.257Z,21.40
2019-06-10T14:12:02.026Z,21.30
2019-06-10T14:14:55.742Z,21.20
2019-06-10T14:17:32.891Z,21.10
2019-06-10T14:20:01.741Z,21.00
2019-06-10T14:22:32.751Z,20.80
2019-06-10T14:25:00.026Z,20.80
2019-06-10T14:27:27.673Z,20.80
2019-06-10T14:29:55.267Z,20.80
2019-06-10T14:32:22.950Z,20.70
2019-06-10T14:34:52.686Z,20.60
2019-06-10T14:37:35.117Z,20.50
2019-06-10T14:39:49.853Z,20.30
2019-06-10T14:42:17.370Z,20.00
2019-06-10T14:44:44.909Z,19.80
2019-06-10T14:47:13.972Z,19.70
2019-06-10T14:49:42.571Z,19.70
2019-06-10T14:52:13.444Z,19.70
2019-06-10T14:54:42.701Z,19.70
2019-06-10T14:57:12.261Z,19.70
2019-06-10T14:59:39.222Z,19.70
2019-06-10T15:02:07.767Z,19.80
2019-06-10T15:04:35.328Z,19.80
2019-06-10T15:07:03.583Z,19.90
2019-06-10T15:09:33.437Z,20.00
2019-06-10T15:12:02.817Z,20.20
2019-06-10T15:14:32.366Z,20.30
2019-06-10T15:17:02.546Z,20.30
2019-06-10T15:19:29.455Z,20.40
2019-06-10T15:21:57.023Z,20.40
2019-06-10T15:24:24.589Z,20.40
2019-06-10T15:27:08.347Z,20.20
2019-06-10T15:29:23.478Z,20.10
2019-06-10T15:32:05.951Z,20.00
2019-06-10T15:34:23.159Z,20.00
2019-06-10T15:36:52.733Z,19.90
2019-06-10T15:39:24.023Z,19.80
2019-06-10T15:41:52.181Z,19.70
2019-06-10T15:44:37.287Z,19.70
2019-06-10T15:46:49.435Z,19.70
2019-06-10T15:49:19.377Z,19.70
2019-06-10T15:51:46.561Z,19.80
2019-06-10T15:54:17.319Z,19.80
2019-06-10T15:56:50.026Z,19.90
2019-06-10T15:59:15.346Z,20.00
2019-06-10T16:01:42.759Z,20.10
2019-06-10T16:04:12.783Z,20.20
2019-06-10T16:06:39.776Z,20.20
2019-06-10T16:09:07.556Z,20.20
2019-06-10T16:11:35.664Z,20.20
2019-06-10T16:14:03.616Z,20.10
2019-06-10T16:16:32.457Z,20.10
2019-06-10T16:19:02.139Z,19.90
2019-06-10T16:21:29.920Z,19.80
2019-06-10T16:23:57.455Z,19.60
2019-06-10T16:26:26.923Z,19.60
2019-06-10T16:28:59.701Z,19.60
2019-06-10T16:31:27.698Z,19.70
2019-06-10T16:33:55.543Z,19.70
2019-06-10T16:36:25.895Z,19.70
2019-06-10T16:38:53.139Z,19.60
2019-06-10T16:41:24.134Z,19.60
2019-06-10T16:43:52.246Z,19.50
2019-06-10T16:46:22.365Z,19.50
2019-06-10T16:48:52.608Z,19.50
2019-06-10T16:51:19.670Z,19.60
2019-06-10T16:53:47.210Z,19.60
2019-06-10T16:56:14.834Z,19.60
2019-06-10T16:58:43.613Z,19.60
2019-06-10T17:01:12.410Z,19.60
2019-06-10T17:03:42.443Z,19.60
2019-06-10T17:06:09.745Z,19.50
2019-06-10T17:08:37.311Z,19.50
2019-06-10T17:11:04.862Z,19.60
2019-06-10T17:13:32.921Z,19.60
2019-06-10T17:16:03.182Z,19.60
2019-06-10T17:18:30.197Z,19.50
2019-06-10T17:20:58.141Z,19.40
2019-06-10T17:23:28.939Z,19.50
2019-06-10T17:25:57.572Z,19.50
2019-06-10T17:28:31.409Z,19.40
2019-06-10T17:30:57.961Z,19.40
2019-06-10T17:33:27.896Z,19.30
2019-06-10T17:35:55.654Z,19.20
2019-06-10T17:38:24.609Z,19.10
2019-06-10T17:40:52.586Z,19.10
2019-06-10T17:43:20.951Z,19.10
2019-06-10T17:45:48.635Z,19.00
2019-06-10T17:48:16.228Z,19.00
2019-06-10T17:50:43.944Z,19.10
2019-06-10T17:53:12.723Z,19.10
2019-06-10T17:55:40.544Z,19.10
2019-06-10T17:58:08.092Z,19.10
2019-06-10T18:00:36.368Z,19.10
2019-06-10T18:03:04.257Z,19.10
2019-06-10T18:05:31.990Z,19.10
2019-06-10T18:08:02.165Z,19.10
2019-06-10T18:10:29.778Z,19.10
2019-06-10T18:13:04.594Z,19.10
2019-06-10T18:15:28.160Z,19.00
2019-06-10T18:17:56.046Z,19.00
2019-06-10T18:20:24.409Z,19.00
2019-06-10T18:22:52.926Z,19.00
2019-06-10T18:25:22.975Z,19.00
2019-06-10T18:27:52.312Z,19.00
2019-06-10T18:30:22.211Z,19.10
2019-06-10T18:32:52.384Z,19.10
2019-06-10T18:35:22.210Z,19.00
2019-06-10T18:37:49.441Z,18.80
2019-06-10T18:40:17.462Z,18.70
2019-06-10T18:42:45.530Z,18.60
2019-06-10T18:45:13.869Z,18.60
2019-06-10T18:47:42.268Z,18.50
2019-06-10T18:50:12.717Z,18.40
2019-06-10T18:52:43.322Z,18.40
2019-06-10T18:55:12.283Z,18.40
2019-06-10T18:57:39.887Z,18.40
2019-06-10T19:00:13.790Z,18.40
2019-06-10T19:02:38.605Z,18.50
2019-06-10T19:05:06.791Z,18.50
2019-06-10T19:07:36.328Z,18.50
2019-06-10T19:10:04.710Z,18.40
2019-06-10T19:12:34.060Z,18.50
2019-06-10T19:15:02.758Z,18.60
2019-06-10T19:17:34.852Z,18.60
2019-06-10T19:20:03.974Z,18.60
2019-06-10T19:22:34.081Z,18.60
2019-06-10T19:25:03.484Z,18.50
2019-06-10T19:27:31.288Z,18.50
2019-06-10T19:29:59.793Z,18.50
2019-06-10T19:32:27.590Z,18.50
2019-06-10T19:34:55.228Z,18.50
2019-06-10T19:37:22.759Z,18.50
2019-06-10T19:39:53.826Z,18.50
2019-06-10T19:42:19.812Z,18.50
2019-06-10T19:44:47.413Z,18.50
2019-06-10T19:47:14.965Z,18.50
2019-06-10T19:49:43.608Z,18.40
2019-06-10T19:52:12.090Z,18.40
2019-06-10T19:54:43.839Z,18.40
2019-06-10T19:57:12.718Z,18.30
2019-06-10T20:00:03.061Z,18.30
2019-06-10T20:02:09.879Z,18.30
2019-06-10T20:04:37.753Z,18.30
2019-06-10T20:07:05.559Z,18.20
2019-06-10T20:09:34.463Z,18.10
2019-06-10T20:12:02.340Z,18.10
2019-06-10T20:14:32.141Z,18.10
2019-06-10T20:16:59.555Z,18.10
2019-06-10T20:19:27.150Z,18.00
2019-06-10T20:21:54.735Z,18.00
2019-06-10T20:24:22.633Z,18.00
2019-06-10T20:26:52.718Z,18.00
2019-06-10T20:29:22.042Z,18.00
2019-06-10T20:31:52.422Z,18.00
2019-06-10T20:34:22.690Z,18.00
2019-06-10T20:36:49.821Z,18.20
2019-06-10T20:39:17.484Z,18.20
2019-06-10T20:41:50.423Z,18.20
2019-06-10T20:44:14.604Z,18.10
2019-06-10T20:46:43.496Z,18.10
2019-06-10T20:49:13.554Z,18.10
2019-06-10T20:51:55.712Z,18.10
2019-06-10T20:54:12.658Z,18.00
2019-06-10T20:56:41.101Z,18.00
2019-06-10T20:59:09.310Z,17.90
2019-06-10T21:01:37.229Z,17.80
2019-06-10T21:04:06.077Z,17.70
2019-06-10T21:06:36.603Z,17.60
2019-06-10T21:09:06.417Z,17.60
2019-06-10T21:11:34.322Z,17.50
2019-06-10T21:14:03.142Z,17.40
2019-06-10T21:16:32.172Z,17.40
2019-06-10T21:18:59.885Z,17.30
2019-06-10T21:21:27.646Z,17.30
2019-06-10T21:23:55.289Z,17.30
2019-06-10T21:26:23.596Z,17.30
2019-06-10T21:28:54.945Z,17.30
2019-06-10T21:31:21.333Z,17.30
2019-06-10T21:33:49.519Z,17.20
2019-06-10T21:36:18.399Z,17.20
2019-06-10T21:38:48.139Z,17.20
2019-06-10T21:41:15.747Z,17.10
2019-06-10T21:43:48.137Z,17.10
2019-06-10T21:46:13.263Z,17.10
2019-06-10T21:48:42.927Z,17.10
2019-06-10T21:51:10.545Z,17.10
2019-06-10T21:53:38.168Z,17.10
2019-06-10T21:56:05.646Z,17.10
2019-06-10T21:58:33.190Z,17.00
2019-06-10T22:01:12.620Z,17.00
2019-06-10T22:03:32.269Z,17.10
2019-06-10T22:05:59.676Z,17.10
2019-06-10T22:08:27.162Z,17.00
2019-06-10T22:10:56.447Z,17.00
2019-06-10T22:13:24.028Z,17.00
2019-06-10T22:15:54.803Z,17.00
2019-06-10T22:18:22.901Z,17.00
2019-06-10T22:20:51.593Z,17.00
2019-06-10T22:23:19.822Z,17.00
2019-06-10T22:25:48.774Z,16.90
2019-06-10T22:28:16.608Z,16.90
2019-06-10T22:30:45.133Z,16.90
2019-06-10T22:33:12.879Z,16.90
2019-06-10T22:35:42.629Z,16.80
2019-06-10T22:38:13.220Z,16.80
2019-06-10T22:40:42.688Z,16.80
2019-06-10T22:43:12.776Z,16.80
2019-06-10T22:45:42.161Z,16.80
2019-06-10T22:48:09.049Z,16.80
2019-06-10T22:50:36.662Z,16.80
2019-06-10T22:53:04.165Z,16.80
2019-06-10T22:55:32.272Z,16.80
2019-06-10T22:58:05.288Z,16.80
2019-06-10T23:00:29.310Z,16.90
2019-06-10T23:02:57.999Z,16.90
2019-06-10T23:05:45.788Z,16.90
2019-06-10T23:08:13.278Z,16.90
2019-06-10T23:10:42.929Z,16.80
2019-06-10T23:13:12.786Z,16.80
2019-06-10T23:15:39.722Z,16.70
2019-06-10T23:18:07.302Z,16.60
2019-06-10T23:20:34.791Z,16.60
2019-06-10T23:23:03.174Z,16.50
2019-06-10T23:25:32.651Z,16.60
2019-06-10T23:28:00.870Z,16.60
2019-06-10T23:30:28.604Z,16.70
2019-06-10T23:32:56.535Z,16.70
2019-06-10T23:35:25.513Z,16.60
2019-06-10T23:37:55.109Z,16.60
2019-06-10T23:40:23.588Z,16.60
2019-06-10T23:42:52.753Z,16.50
2019-06-10T23:45:22.414Z,16.50
2019-06-10T23:47:52.959Z,16.40
2019-06-10T23:50:19.327Z,16.40
2019-06-10T23:52:46.799Z,16.30
2019-06-10T23:55:14.408Z,16.30
2019-06-10T23:57:42.216Z,16.30
